Time;durP1;ratioP1;P1;durP2;ratioP2;P2;SDS_P1;SDS_P2;PMS_P1;PMS_P2;Temp;Humidity;BMP_temperature;BMP_pressure;BME280_temperature;BME280_humidity;BME280_pressure;Samples;Min_cycle;Max_cycle;Signal;HPM_P1;HPM_P2
2022/01/14 00:01:55;;;;;;;27.88;15.63;;;6.30;99.90;;;;;;5099453;27;20487;-71
2022/01/14 00:04:21;;;;;;;30.23;15.98;;;6.30;99.90;;;;;;5095954;27;20479;-71
2022/01/14 00:06:47;;;;;;;29.10;15.68;;;6.30;99.90;;;;;;5114853;27;20042;-72
2022/01/14 00:09:14;;;;;;;25.90;15.43;;;6.30;99.90;;;;;;5098411;27;20039;-72
2022/01/14 00:11:46;;;;;;;28.98;15.07;;;6.30;99.90;;;;;;5099396;27;20046;-71
2022/01/14 00:16:44;;;;;;;24.25;15.63;;;6.30;99.90;;;;;;5116551;27;19958;-72
2022/01/14 00:19:10;;;;;;;27.75;15.88;;;6.30;99.90;;;;;;5115223;27;20046;-71
2022/01/14 00:21:38;;;;;;;29.00;16.30;;;6.20;99.90;;;;;;5116110;27;20031;-71
2022/01/14 00:24:31;;;;;;;25.63;15.10;;;6.20;99.90;;;;;;5098046;27;20153;-72
2022/01/14 00:34:47;;;;;;;28.58;16.27;;;6.30;99.90;;;;;;5116094;27;20077;-71
2022/01/14 00:37:16;;;;;;;35.47;17.85;;;6.20;99.90;;;;;;5106292;28;20060;-72
2022/01/14 00:39:41;;;;;;;29.13;16.08;;;6.20;99.90;;;;;;5093160;27;20050;-72
2022/01/14 00:42:08;;;;;;;26.30;14.55;;;6.10;99.90;;;;;;5114869;28;20403;-72
2022/01/14 00:44:33;;;;;;;33.95;16.00;;;6.20;99.90;;;;;;5098697;28;20553;-71
2022/01/14 00:47:02;;;;;;;33.17;17.33;;;6.20;99.90;;;;;;5097128;28;20028;-71
2022/01/14 00:49:28;;;;;;;29.92;17.02;;;6.10;99.90;;;;;;5103317;28;20039;-71
2022/01/14 00:51:54;;;;;;;29.58;16.85;;;6.10;99.90;;;;;;5099618;28;20043;-72
2022/01/14 00:54:19;;;;;;;30.35;15.48;;;6.10;99.90;;;;;;5115696;28;20043;-71
2022/01/14 00:56:49;;;;;;;31.23;15.43;;;6.20;99.90;;;;;;5114749;28;20067;-71
2022/01/14 00:59:17;;;;;;;29.80;13.95;;;6.10;99.90;;;;;;5113756;28;20047;-72
2022/01/14 01:01:45;;;;;;;23.90;14.63;;;6.20;99.90;;;;;;5115140;28;20039;-71
2022/01/14 01:04:12;;;;;;;23.60;13.77;;;6.20;99.90;;;;;;5098528;28;20041;-71
2022/01/14 01:06:39;;;;;;;31.55;15.50;;;6.20;99.90;;;;;;5114503;28;20082;-71
2022/01/14 01:09:10;;;;;;;29.33;15.38;;;6.20;99.90;;;;;;5097093;28;20578;-71
2022/01/14 01:11:38;;;;;;;28.42;15.45;;;6.20;99.90;;;;;;5115572;28;20050;-71
2022/01/14 01:14:10;;;;;;;31.63;15.73;;;6.10;99.90;;;;;;5114411;28;20089;-71
2022/01/14 01:16:36;;;;;;;24.88;15.57;;;6.10;99.90;;;;;;5115531;28;20152;-71
2022/01/14 01:19:02;;;;;;;27.38;15.85;;;6.10;99.90;;;;;;5117377;27;20373;-71
2022/01/14 01:21:28;;;;;;;25.52;15.00;;;6.10;99.90;;;;;;5120003;27;20039;-71
2022/01/14 01:23:54;;;;;;;24.30;15.02;;;6.10;99.90;;;;;;5101604;27;20050;-71
2022/01/14 01:26:30;;;;;;;25.45;15.10;;;6.10;99.90;;;;;;5102806;27;20083;-71
2022/01/14 01:29:05;;;;;;;30.52;15.45;;;6.10;99.90;;;;;;5120282;27;20097;-71
2022/01/14 01:31:35;;;;;;;26.77;16.75;;;6.00;99.90;;;;;;5119756;27;20387;-71
2022/01/14 01:34:04;;;;;;;27.30;14.50;;;6.00;99.90;;;;;;5101648;27;20065;-71
2022/01/14 01:36:29;;;;;;;22.85;14.25;;;6.00;99.90;;;;;;5119312;27;20035;-72
2022/01/14 01:38:55;;;;;;;27.40;15.63;;;6.00;99.90;;;;;;5118133;27;20062;-71
2022/01/14 01:41:21;;;;;;;25.02;14.77;;;5.90;99.90;;;;;;5102491;27;20035;-71
2022/01/14 01:43:51;;;;;;;28.67;15.07;;;6.00;99.90;;;;;;5101302;27;20035;-72
2022/01/14 01:46:19;;;;;;;28.42;16.52;;;5.90;99.90;;;;;;5102203;27;20046;-71
2022/01/14 01:48:46;;;;;;;27.02;15.40;;;5.90;99.90;;;;;;5117161;27;20043;-71
2022/01/14 01:51:12;;;;;;;31.05;16.35;;;5.90;99.90;;;;;;5118986;27;20046;-71
2022/01/14 01:53:38;;;;;;;26.45;14.60;;;5.90;99.90;;;;;;5099108;27;20031;-71
2022/01/14 01:56:03;;;;;;;24.17;14.93;;;5.90;99.90;;;;;;5118073;27;20277;-71
2022/01/14 01:58:29;;;;;;;28.83;15.52;;;6.00;99.90;;;;;;5117768;27;20065;-72
2022/01/14 02:00:55;;;;;;;30.05;15.55;;;5.90;99.90;;;;;;5116148;27;20039;-71
2022/01/14 02:03:20;;;;;;;28.73;16.08;;;6.00;99.90;;;;;;5115175;27;20461;-71
2022/01/14 02:05:46;;;;;;;32.75;16.67;;;5.90;99.90;;;;;;5101716;27;20031;-72
2022/01/14 02:08:12;;;;;;;29.95;16.05;;;6.00;99.90;;;;;;5118776;27;20070;-72
2022/01/14 02:10:39;;;;;;;29.52;15.20;;;6.00;99.90;;;;;;5099899;27;20066;-71
2022/01/14 02:13:05;;;;;;;29.17;15.98;;;6.00;99.90;;;;;;5118619;27;20047;-71
2022/01/14 02:16:11;;;;;;;27.75;16.08;;;6.00;99.90;;;;;;5100154;28;20031;-72
2022/01/14 02:18:48;;;;;;;29.30;16.50;;;6.00;99.90;;;;;;5097814;27;20051;-72
2022/01/14 02:24:21;;;;;;;27.05;15.40;;;6.00;99.90;;;;;;5117162;27;20031;-72
2022/01/14 02:26:49;;;;;;;28.83;15.98;;;6.00;99.90;;;;;;5118381;27;20031;-71
2022/01/14 02:29:15;;;;;;;29.60;16.38;;;6.10;99.90;;;;;;5116585;28;20043;-71
2022/01/14 02:31:40;;;;;;;25.95;14.20;;;6.00;99.90;;;;;;5099512;27;20039;-72
2022/01/14 02:34:08;;;;;;;27.27;16.40;;;6.10;99.90;;;;;;5114341;27;20041;-71
2022/01/14 02:36:33;;;;;;;33.78;16.20;;;6.10;99.90;;;;;;5101112;27;20045;-71
2022/01/14 02:38:59;;;;;;;30.92;15.65;;;6.10;99.90;;;;;;5099762;27;20055;-72
2022/01/14 02:41:25;;;;;;;28.08;15.43;;;6.10;99.90;;;;;;5114228;27;20035;-71
2022/01/14 02:43:51;;;;;;;28.23;16.10;;;6.10;99.90;;;;;;5096904;28;20476;-72
2022/01/14 02:46:16;;;;;;;27.67;15.20;;;6.10;99.90;;;;;;5094331;27;20035;-72
2022/01/14 02:48:42;;;;;;;34.85;16.70;;;6.20;99.90;;;;;;5116843;27;20483;-72
2022/01/14 02:51:13;;;;;;;29.05;15.77;;;6.10;99.90;;;;;;5121675;27;20464;-71
2022/01/14 02:56:11;;;;;;;28.20;17.05;;;6.10;99.90;;;;;;5116811;27;20054;-71
2022/01/14 02:58:39;;;;;;;29.48;16.05;;;6.10;99.90;;;;;;5116861;27;20394;-71
2022/01/14 03:01:08;;;;;;;29.55;15.35;;;6.10;99.90;;;;;;5099841;27;20052;-71
2022/01/14 03:03:34;;;;;;;31.17;14.85;;;6.20;99.90;;;;;;5099780;27;20103;-71
2022/01/14 03:06:04;;;;;;;31.98;16.67;;;6.30;99.90;;;;;;5116514;27;20046;-71
2022/01/14 03:08:30;;;;;;;28.85;15.95;;;6.20;99.90;;;;;;5113411;27;20038;-72
2022/01/14 03:11:00;;;;;;;32.42;16.08;;;6.20;99.90;;;;;;5100115;27;20502;-71
2022/01/14 03:13:27;;;;;;;29.27;15.57;;;6.30;99.90;;;;;;5113866;27;20031;-72
2022/01/14 03:15:53;;;;;;;25.10;16.08;;;6.30;99.90;;;;;;5099200;27;20492;-71
2022/01/14 03:18:30;;;;;;;25.63;14.93;;;6.30;99.90;;;;;;5100370;27;20046;-71
2022/01/14 03:21:08;;;;;;;26.92;15.30;;;6.40;99.90;;;;;;5116503;27;20495;-71
2022/01/14 03:23:42;;;;;;;32.05;16.17;;;6.40;99.90;;;;;;5099211;27;20137;-71
2022/01/14 03:26:07;;;;;;;33.20;16.70;;;6.40;99.90;;;;;;5116079;27;20066;-71
2022/01/14 03:28:33;;;;;;;31.63;16.45;;;6.30;99.90;;;;;;5116053;27;20089;-71
2022/01/14 03:30:58;;;;;;;27.67;16.02;;;6.30;99.90;;;;;;5100050;27;20111;-71
2022/01/14 03:33:24;;;;;;;29.15;16.75;;;6.20;99.90;;;;;;5117101;27;20043;-71
2022/01/14 03:35:50;;;;;;;34.05;16.38;;;6.30;99.90;;;;;;5114880;27;20049;-71
2022/01/14 03:38:16;;;;;;;31.30;15.18;;;6.40;99.90;;;;;;5099874;27;20518;-71
2022/01/14 03:40:42;;;;;;;33.03;16.80;;;6.30;99.90;;;;;;5114326;27;20047;-71
2022/01/14 03:43:07;;;;;;;32.58;17.00;;;6.40;99.90;;;;;;5132988;27;20035;-71
2022/01/14 03:45:33;;;;;;;30.40;17.90;;;6.30;99.90;;;;;;5119583;27;20031;-71
2022/01/14 03:47:59;;;;;;;36.72;17.65;;;6.30;99.90;;;;;;5098286;27;20042;-71
2022/01/14 03:50:25;;;;;;;28.73;16.58;;;6.20;99.90;;;;;;5098011;27;20039;-72
2022/01/14 03:52:51;;;;;;;28.77;15.85;;;6.20;99.90;;;;;;5096026;27;20050;-72
2022/01/14 03:55:16;;;;;;;36.75;18.60;;;6.20;99.90;;;;;;5099490;27;20043;-71
2022/01/14 03:57:42;;;;;;;31.30;17.25;;;6.30;99.90;;;;;;5113639;27;20035;-71
2022/01/14 04:00:09;;;;;;;32.72;16.52;;;6.20;99.90;;;;;;5109313;27;20059;-71
2022/01/14 04:02:35;;;;;;;35.60;18.15;;;6.20;99.90;;;;;;5114648;27;20027;-71
2022/01/14 04:05:01;;;;;;;34.50;17.98;;;6.20;99.90;;;;;;5111305;27;20370;-72
2022/01/14 04:07:26;;;;;;;30.52;18.10;;;6.10;99.90;;;;;;5097244;27;20523;-71
2022/01/14 04:09:52;;;;;;;30.80;18.15;;;6.10;99.90;;;;;;5099347;27;20053;-72
2022/01/14 04:12:30;;;;;;;32.70;17.77;;;6.10;99.90;;;;;;5113246;27;20036;-71
2022/01/14 04:17:21;;;;;;;29.05;16.77;;;6.10;99.90;;;;;;5104755;27;20146;-71
2022/01/14 04:19:47;;;;;;;31.48;17.58;;;6.10;99.90;;;;;;5087913;27;20525;-71
2022/01/14 04:22:13;;;;;;;30.23;17.25;;;6.20;99.90;;;;;;5089781;27;20035;-71
2022/01/14 04:24:38;;;;;;;32.10;17.65;;;6.20;99.90;;;;;;5089520;27;20072;-71
2022/01/14 04:27:04;;;;;;;32.70;18.42;;;6.20;99.90;;;;;;5073943;27;20621;-71
2022/01/14 04:29:29;;;;;;;35.63;18.77;;;6.20;99.90;;;;;;5088216;27;20466;-71
2022/01/14 04:31:55;;;;;;;31.95;17.55;;;6.20;99.90;;;;;;5093714;27;20069;-71
2022/01/14 04:34:20;;;;;;;27.15;14.70;;;6.20;99.90;;;;;;5093026;28;20131;-71
2022/01/14 04:36:46;;;;;;;33.13;17.70;;;6.30;99.90;;;;;;5090878;27;20131;-72
2022/01/14 04:39:12;;;;;;;33.88;18.77;;;6.30;99.90;;;;;;5075037;27;20145;-71
2022/01/14 04:41:37;;;;;;;33.30;17.98;;;6.20;99.90;;;;;;5074608;28;20223;-72
2022/01/14 04:44:03;;;;;;;33.45;18.63;;;6.20;99.90;;;;;;5070913;27;20035;-71
2022/01/14 04:49:06;;;;;;;26.48;14.98;;;6.30;99.90;;;;;;5086052;28;21830;-71
2022/01/14 04:51:32;;;;;;;27.48;15.93;;;6.40;99.90;;;;;;5073287;28;20042;-71
2022/01/14 04:53:58;;;;;;;32.55;16.92;;;6.40;99.90;;;;;;5076233;28;20400;-71
2022/01/14 04:56:24;;;;;;;30.08;15.70;;;6.30;99.90;;;;;;5094107;28;20498;-72
2022/01/14 04:58:49;;;;;;;29.75;16.80;;;6.30;99.90;;;;;;5070087;28;20031;-71
2022/01/14 05:01:15;;;;;;;29.73;16.98;;;6.40;99.90;;;;;;5102492;28;20034;-71
2022/01/14 05:03:40;;;;;;;35.78;18.50;;;6.30;99.90;;;;;;5103818;28;20070;-71
2022/01/14 05:06:07;;;;;;;30.08;17.42;;;6.20;99.90;;;;;;5095898;28;20043;-71
2022/01/14 05:08:38;;;;;;;29.48;16.75;;;6.20;99.90;;;;;;5108314;28;20039;-71
2022/01/14 05:11:23;;;;;;;28.77;16.97;;;6.10;99.90;;;;;;5087215;28;20046;-71
2022/01/14 05:13:49;;;;;;;28.27;17.30;;;6.10;99.90;;;;;;5089136;28;20444;-71
2022/01/14 05:16:14;;;;;;;26.90;16.73;;;6.20;99.90;;;;;;5091002;28;20119;-71
2022/01/14 05:18:40;;;;;;;28.35;15.68;;;6.20;99.90;;;;;;5092885;28;20031;-71
2022/01/14 05:21:07;;;;;;;28.60;16.33;;;6.20;99.90;;;;;;5090977;28;20111;-72
2022/01/14 05:23:33;;;;;;;26.40;14.20;;;6.20;99.90;;;;;;5088852;28;20434;-71
2022/01/14 05:25:58;;;;;;;27.98;16.35;;;6.40;99.90;;;;;;5073410;28;20035;-72
2022/01/14 05:28:24;;;;;;;31.05;16.30;;;6.30;99.90;;;;;;5089201;28;20050;-71
2022/01/14 05:30:50;;;;;;;26.38;15.00;;;6.30;99.90;;;;;;5069865;28;20092;-71
2022/01/14 05:33:16;;;;;;;32.13;17.38;;;6.30;99.90;;;;;;5103976;28;20039;-72
2022/01/14 05:35:42;;;;;;;30.20;16.15;;;6.30;99.90;;;;;;5089776;28;20533;-71
2022/01/14 05:38:08;;;;;;;29.27;16.55;;;6.30;99.90;;;;;;5071121;28;20145;-71
2022/01/14 05:40:34;;;;;;;25.85;15.27;;;6.30;99.90;;;;;;5073948;28;20054;-72
2022/01/14 05:42:59;;;;;;;27.60;17.73;;;6.30;99.90;;;;;;5082786;28;20803;-71
2022/01/14 05:45:25;;;;;;;32.65;17.50;;;6.20;99.90;;;;;;5090190;28;20034;-71
2022/01/14 05:47:51;;;;;;;33.33;17.90;;;6.20;99.90;;;;;;5088420;28;20084;-71
2022/01/14 05:50:20;;;;;;;29.42;17.52;;;6.10;99.90;;;;;;5069289;28;20035;-71
2022/01/14 05:52:46;;;;;;;31.10;18.02;;;6.10;99.90;;;;;;5075952;28;20054;-72
2022/01/14 05:55:13;;;;;;;30.60;17.10;;;6.00;99.90;;;;;;5072723;28;20736;-72
2022/01/14 05:57:39;;;;;;;37.13;18.42;;;6.10;99.90;;;;;;5068097;28;20379;-72
2022/01/14 06:00:07;;;;;;;30.65;17.27;;;6.00;99.90;;;;;;5071380;28;20042;-71
2022/01/14 06:02:33;;;;;;;32.92;16.65;;;6.00;99.90;;;;;;5082404;28;20042;-71
2022/01/14 06:04:58;;;;;;;28.55;18.23;;;6.10;99.90;;;;;;5089739;27;20390;-71
2022/01/14 06:07:24;;;;;;;32.47;18.38;;;6.10;99.90;;;;;;5096463;27;20087;-72
2022/01/14 06:09:50;;;;;;;32.08;17.58;;;6.00;99.90;;;;;;5109559;27;20070;-72
2022/01/14 06:12:15;;;;;;;33.63;18.92;;;6.00;99.90;;;;;;5091530;27;20039;-72
2022/01/14 06:14:41;;;;;;;30.13;17.27;;;6.00;99.90;;;;;;5074001;27;20047;-71
2022/01/14 06:17:06;;;;;;;31.05;18.40;;;6.00;99.90;;;;;;5092560;27;20074;-71
2022/01/14 06:19:32;;;;;;;27.90;17.38;;;6.00;99.90;;;;;;5080688;27;20039;-71
2022/01/14 06:21:57;;;;;;;33.20;17.60;;;6.00;99.90;;;;;;5074169;27;20965;-71
2022/01/14 06:24:23;;;;;;;27.77;17.15;;;6.00;99.90;;;;;;5092613;27;20601;-71
2022/01/14 06:26:49;;;;;;;29.05;17.08;;;6.10;99.90;;;;;;5079069;27;20408;-71
2022/01/14 06:29:14;;;;;;;30.08;17.35;;;6.00;99.90;;;;;;5074894;27;20513;-71
2022/01/14 06:31:40;;;;;;;29.30;17.67;;;6.00;99.90;;;;;;5092107;27;20696;-71
2022/01/14 06:34:06;;;;;;;25.27;16.83;;;6.00;99.90;;;;;;5080793;27;20054;-71
2022/01/14 06:36:31;;;;;;;29.92;17.23;;;6.00;99.90;;;;;;5092656;27;20046;-71
2022/01/14 06:38:57;;;;;;;29.92;17.90;;;6.00;99.90;;;;;;5075386;27;20160;-71
2022/01/14 06:41:23;;;;;;;29.20;17.55;;;6.00;99.90;;;;;;5090395;27;20376;-71
2022/01/14 06:43:48;;;;;;;31.38;16.98;;;6.00;99.90;;;;;;5089600;27;20109;-71
2022/01/14 06:46:14;;;;;;;28.17;17.58;;;6.00;99.90;;;;;;5077690;27;20035;-71
2022/01/14 06:48:40;;;;;;;30.52;17.48;;;6.00;99.90;;;;;;5075853;27;20035;-71
2022/01/14 06:51:05;;;;;;;27.65;18.33;;;6.00;99.90;;;;;;5089768;27;20099;-71
2022/01/14 06:53:31;;;;;;;31.60;18.80;;;6.00;99.90;;;;;;5090532;27;20142;-71
2022/01/14 06:55:56;;;;;;;26.95;17.15;;;5.90;99.90;;;;;;5107025;27;20039;-71
2022/01/14 06:58:22;;;;;;;27.50;16.40;;;5.90;99.90;;;;;;5074521;27;20074;-71
2022/01/14 07:00:48;;;;;;;28.60;15.90;;;6.00;99.90;;;;;;5076232;27;20042;-71
2022/01/14 07:03:13;;;;;;;29.00;16.55;;;6.00;99.90;;;;;;5094912;27;20039;-71
2022/01/14 07:05:39;;;;;;;28.00;16.67;;;6.00;99.90;;;;;;5081331;27;20498;-71
2022/01/14 07:08:04;;;;;;;26.08;17.33;;;6.00;99.90;;;;;;5074704;27;20089;-71
2022/01/14 07:10:35;;;;;;;27.90;17.98;;;6.00;99.90;;;;;;5105535;27;20039;-72
2022/01/14 07:13:01;;;;;;;26.27;16.73;;;6.00;99.90;;;;;;5112806;27;20384;-71
2022/01/14 07:15:26;;;;;;;33.67;17.85;;;6.00;99.90;;;;;;5078694;27;20061;-71
2022/01/14 07:17:52;;;;;;;30.00;18.17;;;6.00;99.90;;;;;;5092177;27;20072;-71
2022/01/14 07:20:18;;;;;;;30.40;17.65;;;6.00;99.90;;;;;;5093427;27;20149;-71
2022/01/14 07:22:46;;;;;;;26.55;15.27;;;6.00;99.90;;;;;;5092319;27;20123;-71
2022/01/14 07:25:13;;;;;;;32.17;16.70;;;6.00;99.90;;;;;;5087705;27;20036;-71
2022/01/14 07:27:38;;;;;;;30.05;16.50;;;6.10;99.90;;;;;;5089403;27;20574;-71
2022/01/14 07:30:06;;;;;;;27.83;15.98;;;6.10;99.90;;;;;;5084208;27;20039;-71
2022/01/14 07:32:31;;;;;;;26.17;16.42;;;6.00;99.90;;;;;;5095539;27;20100;-71
2022/01/14 07:34:57;;;;;;;29.23;16.55;;;6.00;99.90;;;;;;5096901;27;20031;-71
2022/01/14 07:37:23;;;;;;;28.15;15.90;;;6.00;99.90;;;;;;5115367;27;20043;-71
2022/01/14 07:39:48;;;;;;;27.73;16.83;;;6.00;99.90;;;;;;5105431;28;20047;-71
2022/01/14 07:42:14;;;;;;;30.92;16.60;;;6.10;99.90;;;;;;5096095;28;20458;-71
2022/01/14 07:44:40;;;;;;;28.88;16.77;;;6.00;99.90;;;;;;5107000;27;20039;-71
2022/01/14 07:47:06;;;;;;;30.13;15.23;;;6.10;99.90;;;;;;5095011;27;20479;-71
2022/01/14 07:49:32;;;;;;;26.67;16.20;;;6.00;99.90;;;;;;5116025;27;20114;-71
2022/01/14 07:51:58;;;;;;;26.70;16.48;;;6.10;99.90;;;;;;5113910;27;20531;-72
2022/01/14 07:54:24;;;;;;;31.88;16.02;;;6.10;99.90;;;;;;5113796;27;20039;-72
2022/01/14 07:56:53;;;;;;;28.52;15.73;;;6.00;99.90;;;;;;5114500;27;20039;-71
2022/01/14 07:59:22;;;;;;;25.95;16.02;;;6.00;99.90;;;;;;5114052;27;20511;-71
2022/01/14 08:01:50;;;;;;;28.60;15.38;;;6.10;99.90;;;;;;5112189;27;20035;-71
2022/01/14 08:04:18;;;;;;;25.05;14.90;;;6.10;99.90;;;;;;5115600;27;20027;-71
2022/01/14 08:06:46;;;;;;;30.58;15.82;;;6.10;99.90;;;;;;5112875;27;20043;-71
2022/01/14 08:09:13;;;;;;;28.83;15.82;;;6.10;99.90;;;;;;5107015;27;20035;-72
2022/01/14 08:11:39;;;;;;;26.65;16.17;;;6.10;99.90;;;;;;5114961;27;20051;-72
2022/01/14 08:14:05;;;;;;;27.45;14.63;;;6.10;99.90;;;;;;5113494;27;20537;-72
2022/01/14 08:16:31;;;;;;;30.08;15.00;;;6.10;99.90;;;;;;5097169;27;20053;-72
2022/01/14 08:18:56;;;;;;;28.73;15.52;;;6.10;99.90;;;;;;5097269;27;20110;-71
2022/01/14 08:21:22;;;;;;;32.05;15.23;;;6.10;99.90;;;;;;5111012;27;20054;-72
2022/01/14 08:23:47;;;;;;;27.73;14.73;;;6.20;99.90;;;;;;5107494;27;20110;-71
2022/01/14 08:26:14;;;;;;;32.47;14.40;;;6.10;99.90;;;;;;5089931;27;20091;-72
2022/01/14 08:28:39;;;;;;;22.40;13.50;;;6.20;99.90;;;;;;5106252;27;20035;-72
2022/01/14 08:31:05;;;;;;;25.55;14.07;;;6.20;99.90;;;;;;5095926;27;20046;-71
2022/01/14 08:33:30;;;;;;;24.98;13.90;;;6.20;99.90;;;;;;5115567;27;20441;-72
2022/01/14 08:35:56;;;;;;;28.95;14.80;;;6.20;99.90;;;;;;5098987;27;20130;-72
2022/01/14 08:38:22;;;;;;;25.02;13.93;;;6.20;99.90;;;;;;5098943;27;20143;-71
2022/01/14 08:40:49;;;;;;;25.25;13.82;;;6.20;99.90;;;;;;5095914;28;20502;-71
2022/01/14 08:43:15;;;;;;;22.38;13.57;;;6.30;99.90;;;;;;5115078;28;20091;-71
2022/01/14 08:45:40;;;;;;;26.30;14.07;;;6.20;99.90;;;;;;5112901;28;20467;-71
2022/01/14 08:48:06;;;;;;;28.65;14.68;;;6.30;99.90;;;;;;5113023;28;20039;-71
2022/01/14 08:50:35;;;;;;;26.98;14.02;;;6.20;99.90;;;;;;5098780;28;20043;-71
2022/01/14 08:53:02;;;;;;;26.25;13.98;;;6.30;99.90;;;;;;5115400;28;20072;-71
2022/01/14 08:55:28;;;;;;;26.98;13.27;;;6.30;99.90;;;;;;5115731;28;20050;-71
2022/01/14 08:57:54;;;;;;;30.60;13.60;;;6.30;99.90;;;;;;5096358;28;20038;-71
2022/01/14 09:00:21;;;;;;;24.95;12.25;;;6.30;99.90;;;;;;5115426;28;20147;-71
2022/01/14 09:02:47;;;;;;;21.95;11.73;;;6.40;99.90;;;;;;5097653;28;20099;-71
2022/01/14 09:05:13;;;;;;;21.40;11.88;;;6.40;99.90;;;;;;5098693;28;20122;-72
2022/01/14 09:07:39;;;;;;;22.13;12.23;;;6.40;99.90;;;;;;5114601;28;20085;-71
2022/01/14 09:10:07;;;;;;;22.90;11.50;;;6.40;99.90;;;;;;5115284;28;20043;-71
2022/01/14 09:12:33;;;;;;;23.25;11.68;;;6.50;99.90;;;;;;5097648;28;20087;-71
2022/01/14 09:15:00;;;;;;;21.73;11.30;;;6.50;99.90;;;;;;5097059;28;20119;-71
2022/01/14 09:17:26;;;;;;;23.17;11.85;;;6.50;99.90;;;;;;5112554;28;20047;-71
2022/01/14 09:19:52;;;;;;;21.02;10.73;;;6.60;99.90;;;;;;5098394;28;20088;-72
2022/01/14 09:22:18;;;;;;;18.95;11.20;;;6.60;99.90;;;;;;5097144;28;20039;-74
2022/01/14 09:24:46;;;;;;;24.83;11.48;;;6.60;99.90;;;;;;5115568;28;20088;-72
2022/01/14 09:27:13;;;;;;;17.42;10.00;;;6.60;99.90;;;;;;5097814;28;20035;-73
2022/01/14 09:29:39;;;;;;;23.75;10.85;;;6.60;99.90;;;;;;5115393;28;20035;-71
2022/01/14 09:32:05;;;;;;;21.90;10.18;;;6.70;99.90;;;;;;5097581;28;20057;-71
2022/01/14 09:34:32;;;;;;;23.20;10.93;;;6.70;99.90;;;;;;5115694;28;20096;-71
2022/01/14 09:36:58;;;;;;;21.08;9.95;;;6.70;99.90;;;;;;5109738;28;20028;-71
2022/01/14 09:39:23;;;;;;;19.02;9.45;;;6.70;99.90;;;;;;5098212;27;20587;-72
2022/01/14 09:41:49;;;;;;;22.60;9.25;;;6.80;99.90;;;;;;5116200;27;20565;-71
2022/01/14 09:44:16;;;;;;;22.88;9.02;;;6.80;99.90;;;;;;5115751;27;20043;-71
2022/01/14 09:46:42;;;;;;;19.15;9.60;;;6.80;99.90;;;;;;5097249;27;20122;-71
2022/01/14 09:49:08;;;;;;;18.83;9.25;;;6.80;99.90;;;;;;5118088;27;20563;-71
2022/01/14 09:51:33;;;;;;;19.10;8.93;;;6.80;99.90;;;;;;5116312;27;20236;-71
2022/01/14 09:53:59;;;;;;;18.33;7.90;;;6.90;99.90;;;;;;5101252;27;20095;-71
2022/01/14 09:56:25;;;;;;;17.38;7.88;;;6.90;99.90;;;;;;5115969;27;20035;-71
2022/01/14 09:58:52;;;;;;;15.60;7.78;;;6.90;99.90;;;;;;5116637;27;20035;-71
2022/01/14 10:01:23;;;;;;;15.88;7.63;;;6.90;99.90;;;;;;5116487;27;20050;-71
2022/01/14 10:04:02;;;;;;;19.90;8.03;;;7.00;99.90;;;;;;5117402;27;20043;-71
2022/01/14 10:06:54;;;;;;;15.13;7.95;;;7.00;99.90;;;;;;5117385;27;20277;-71
2022/01/14 10:09:29;;;;;;;17.27;7.60;;;7.00;99.90;;;;;;5111046;27;20055;-71
2022/01/14 10:11:59;;;;;;;16.42;6.97;;;7.00;99.90;;;;;;5116707;27;20043;-71
2022/01/14 10:14:25;;;;;;;17.27;6.95;;;7.00;99.90;;;;;;5112736;27;20043;-71
2022/01/14 10:16:56;;;;;;;15.73;5.82;;;7.10;99.90;;;;;;5114876;27;20045;-71
2022/01/14 10:19:26;;;;;;;14.77;6.70;;;7.10;99.90;;;;;;5113015;27;20040;-71
2022/01/14 10:21:53;;;;;;;16.42;5.95;;;7.10;99.90;;;;;;5115555;27;20051;-71
2022/01/14 10:24:21;;;;;;;14.63;5.78;;;7.20;99.90;;;;;;5105913;27;20035;-71
2022/01/14 10:26:59;;;;;;;14.88;5.50;;;7.20;99.90;;;;;;5099475;27;20036;-71
2022/01/14 10:29:29;;;;;;;12.27;5.15;;;7.20;99.90;;;;;;5107946;27;20097;-71
2022/01/14 10:31:55;;;;;;;13.93;4.65;;;7.30;99.90;;;;;;5112489;27;20080;-71
2022/01/14 10:34:22;;;;;;;12.77;5.30;;;7.30;99.90;;;;;;5092602;27;20042;-71
2022/01/14 10:36:50;;;;;;;12.90;4.68;;;7.30;99.90;;;;;;5110048;28;20055;-71
2022/01/14 10:39:23;;;;;;;16.23;5.15;;;7.30;99.90;;;;;;5086598;27;20138;-71
2022/01/14 10:41:50;;;;;;;13.05;4.53;;;7.30;99.90;;;;;;5113753;27;20035;-71
2022/01/14 10:44:42;;;;;;;15.00;5.32;;;7.30;99.90;;;;;;5098292;27;20122;-71
2022/01/14 10:47:14;;;;;;;15.98;5.25;;;7.30;99.90;;;;;;5111766;27;20499;-71
2022/01/14 10:49:46;;;;;;;13.07;5.38;;;7.30;99.90;;;;;;5097172;27;20039;-71
2022/01/14 10:52:23;;;;;;;13.38;4.65;;;7.30;99.90;;;;;;5109900;27;20043;-71
2022/01/14 10:54:52;;;;;;;13.20;4.38;;;7.40;99.90;;;;;;5124635;27;20458;-71
2022/01/14 10:57:35;;;;;;;13.27;4.88;;;7.40;99.90;;;;;;5099884;27;20050;-71
2022/01/14 11:00:22;;;;;;;13.02;4.95;;;7.40;99.90;;;;;;5099457;27;20193;-71
2022/01/14 11:02:52;;;;;;;15.82;4.97;;;7.40;99.90;;;;;;5112442;27;20627;-71
2022/01/14 11:05:20;;;;;;;13.40;5.18;;;7.30;99.90;;;;;;5108946;27;20045;-71
2022/01/14 11:07:47;;;;;;;13.18;4.97;;;7.30;99.90;;;;;;5124032;27;20039;-71
2022/01/14 11:10:23;;;;;;;15.13;5.13;;;7.30;99.90;;;;;;5116238;27;20087;-71
2022/01/14 11:12:50;;;;;;;11.95;4.30;;;7.30;99.90;;;;;;5094613;27;20436;-72
2022/01/14 11:15:16;;;;;;;11.48;4.07;;;7.30;99.90;;;;;;5108302;27;20389;-71
2022/01/14 11:17:45;;;;;;;15.82;4.13;;;7.30;99.90;;;;;;5096534;27;20039;-71
2022/01/14 11:20:11;;;;;;;10.93;4.10;;;7.40;99.90;;;;;;5079000;28;20554;-71
2022/01/14 11:25:22;;;;;;;12.98;3.90;;;7.40;99.90;;;;;;5112617;27;20039;-71
2022/01/14 11:27:52;;;;;;;11.80;3.67;;;7.40;99.90;;;;;;5115322;27;20039;-71
2022/01/14 11:30:17;;;;;;;10.95;3.33;;;7.40;99.90;;;;;;5112951;27;20038;-71
2022/01/14 11:32:58;;;;;;;13.18;3.70;;;7.40;99.90;;;;;;5113470;27;20451;-71
2022/01/14 11:35:25;;;;;;;13.40;3.53;;;7.40;99.90;;;;;;5115316;27;20072;-71
2022/01/14 11:37:51;;;;;;;10.98;3.45;;;7.40;99.90;;;;;;5115593;27;20055;-71
2022/01/14 11:40:17;;;;;;;13.20;3.88;;;7.40;99.90;;;;;;5111972;27;20039;-71
2022/01/14 11:42:59;;;;;;;13.57;3.25;;;7.50;99.90;;;;;;5116116;27;20031;-71
2022/01/14 11:45:47;;;;;;;13.63;3.90;;;7.40;99.90;;;;;;5098948;27;20118;-71
2022/01/14 11:48:39;;;;;;;11.52;3.85;;;7.50;99.90;;;;;;5097066;27;20070;-76
2022/01/14 11:51:07;;;;;;;13.40;4.45;;;7.50;99.90;;;;;;5095359;27;20042;-71
2022/01/14 11:53:43;;;;;;;11.20;3.85;;;7.50;99.90;;;;;;5097435;27;20507;-71
2022/01/14 11:56:34;;;;;;;10.50;3.47;;;7.60;99.90;;;;;;5115752;27;20039;-71
2022/01/14 11:59:18;;;;;;;14.43;3.47;;;7.60;99.90;;;;;;5096901;27;20417;-70
2022/01/14 12:01:49;;;;;;;12.25;3.40;;;7.70;99.90;;;;;;5112618;27;20096;-70
2022/01/14 12:04:16;;;;;;;13.35;3.67;;;7.60;99.90;;;;;;5094882;27;20039;-71
2022/01/14 12:06:50;;;;;;;14.80;3.53;;;7.60;99.90;;;;;;5097362;27;20040;-71
2022/01/14 12:09:18;;;;;;;11.43;3.40;;;7.60;99.90;;;;;;5098367;27;20372;-70
2022/01/14 12:11:43;;;;;;;16.52;4.40;;;7.60;99.90;;;;;;5114318;27;20307;-70
2022/01/14 12:14:11;;;;;;;12.30;3.55;;;7.60;99.90;;;;;;5115852;27;20567;-71
2022/01/14 12:16:46;;;;;;;14.55;3.95;;;7.60;99.90;;;;;;5111812;27;20042;-71
2022/01/14 12:19:16;;;;;;;14.93;4.85;;;7.60;99.90;;;;;;5110203;27;20420;-71
2022/01/14 12:21:45;;;;;;;13.43;4.55;;;7.50;99.90;;;;;;5113819;27;20118;-70
2022/01/14 12:24:17;;;;;;;12.90;3.40;;;7.60;99.90;;;;;;5096197;27;20087;-70
2022/01/14 12:26:52;;;;;;;19.80;4.03;;;7.70;99.90;;;;;;5115515;27;20074;-70
2022/01/14 12:29:18;;;;;;;14.05;4.93;;;7.70;99.90;;;;;;5112689;27;20038;-70
2022/01/14 12:32:06;;;;;;;13.55;3.53;;;7.50;99.90;;;;;;5109701;28;20117;-70
2022/01/14 12:34:34;;;;;;;14.75;3.55;;;7.60;99.90;;;;;;5109096;27;20043;-70
2022/01/14 12:37:00;;;;;;;12.82;3.80;;;7.60;99.90;;;;;;5112379;27;20429;-70
2022/01/14 12:39:27;;;;;;;14.15;4.32;;;7.60;99.90;;;;;;5094950;28;20039;-71
2022/01/14 12:41:54;;;;;;;11.23;3.90;;;7.60;99.90;;;;;;5096976;27;20029;-70
2022/01/14 12:44:23;;;;;;;14.77;4.20;;;7.60;99.90;;;;;;5113992;27;20057;-70
2022/01/14 12:47:06;;;;;;;16.67;4.63;;;7.60;99.90;;;;;;5095387;27;20046;-70
2022/01/14 12:49:38;;;;;;;;;;;7.50;99.90;;;;;;5097234;28;20075;-70
2022/01/14 12:52:16;;;;;;;14.80;4.00;;;7.50;99.90;;;;;;5100604;28;19935;-70
2022/01/14 12:54:46;;;;;;;17.65;4.45;;;7.50;99.90;;;;;;5085752;28;20083;-70
2022/01/14 12:57:22;;;;;;;14.30;4.97;;;7.60;99.90;;;;;;5077023;28;20126;-70
2022/01/14 12:59:50;;;;;;;13.27;4.32;;;7.60;99.90;;;;;;5101184;28;20051;-70
2022/01/14 13:02:20;;;;;;;17.83;5.15;;;7.60;99.90;;;;;;5092198;28;20036;-70
2022/01/14 13:04:59;;;;;;;16.00;4.53;;;7.60;99.90;;;;;;5106632;28;20115;-70
2022/01/14 13:07:25;;;;;;;17.65;4.93;;;7.50;99.90;;;;;;5093905;28;20436;-70
2022/01/14 13:09:52;;;;;;;12.52;4.25;;;7.50;99.90;;;;;;5076713;28;20078;-70